Time;durP1;ratioP1;P1;durP2;ratioP2;P2;SDS_P1;SDS_P2;PMS_P1;PMS_P2;Temp;Humidity;BMP_temperature;BMP_pressure;BME280_temperature;BME280_humidity;BME280_pressure;Samples;Min_cycle;Max_cycle;Signal;HPM_P1;HPM_P2
2024/02/20 00:01:50;;;;;;;4.47;1.35;;;;;;;7.25;94.57;101462.34;5080898;28;20035;-68
2024/02/20 00:04:17;;;;;;;6.45;1.10;;;;;;;7.09;94.54;101457.31;5081759;28;20082;-68
2024/02/20 00:06:43;;;;;;;3.25;0.77;;;;;;;7.14;93.95;101460.44;5084522;28;20042;-69
2024/02/20 00:09:09;;;;;;;2.30;0.80;;;;;;;7.15;93.73;101456.09;5081649;28;20067;-69
2024/02/20 00:11:34;;;;;;;2.58;1.00;;;;;;;7.14;94.96;101457.00;5083012;28;20052;-69
2024/02/20 00:14:00;;;;;;;2.30;0.47;;;;;;;7.07;93.88;101455.78;5081725;28;20051;-69
2024/02/20 00:16:25;;;;;;;2.05;0.70;;;;;;;7.18;93.79;101456.72;5083942;28;20032;-69
2024/02/20 00:18:51;;;;;;;5.15;0.47;;;;;;;7.31;93.16;101443.81;5081095;28;20081;-69
2024/02/20 00:21:17;;;;;;;1.88;0.65;;;;;;;7.35;94.19;101444.44;5086487;28;20032;-69
2024/02/20 00:23:43;;;;;;;2.28;0.50;;;;;;;7.39;93.88;101443.31;5083470;28;20368;-69
2024/02/20 00:26:09;;;;;;;4.13;0.60;;;;;;;7.43;94.91;101443.00;5084595;28;20082;-69
2024/02/20 00:28:40;;;;;;;2.03;0.40;;;;;;;7.38;95.74;101450.25;5084381;28;20376;-68
2024/02/20 00:31:06;;;;;;;3.03;0.47;;;;;;;7.32;97.04;101443.72;5082693;28;20119;-68
2024/02/20 00:33:32;;;;;;;2.60;0.40;;;;;;;7.23;97.88;101449.47;5083744;28;20039;-68
2024/02/20 00:35:57;;;;;;;1.10;0.45;;;;;;;7.17;98.79;101447.28;5083790;28;20548;-70
2024/02/20 00:38:22;;;;;;;2.15;0.45;;;;;;;7.13;99.14;101447.56;5084173;28;20028;-68
2024/02/20 00:40:48;;;;;;;1.67;0.50;;;;;;;7.12;99.00;101456.28;5082411;28;20024;-68
2024/02/20 00:43:13;;;;;;;3.22;0.65;;;;;;;7.11;98.20;101450.25;5081337;28;20113;-68
2024/02/20 00:45:39;;;;;;;1.83;0.45;;;;;;;7.18;97.15;101450.69;5082309;28;20035;-68
2024/02/20 00:48:05;;;;;;;1.50;0.40;;;;;;;7.19;96.56;101442.00;5083638;28;20336;-68
2024/02/20 00:50:31;;;;;;;5.07;0.40;;;;;;;7.21;96.12;101429.78;5081226;28;20064;-68
2024/02/20 00:52:57;;;;;;;1.70;0.52;;;;;;;7.18;95.47;101441.16;5081644;28;20032;-68
2024/02/20 00:55:22;;;;;;;2.38;0.40;;;;;;;7.16;95.29;101437.00;5084827;28;20039;-68
2024/02/20 00:57:48;;;;;;;1.05;0.35;;;;;;;7.13;95.30;101450.16;5084965;28;20059;-68
2024/02/20 01:00:14;;;;;;;2.05;0.25;;;;;;;7.10;96.06;101446.00;5081239;28;20040;-68
2024/02/20 01:02:40;;;;;;;2.60;0.40;;;;;;;7.06;96.13;101447.16;5083463;28;20028;-69
2024/02/20 01:05:07;;;;;;;2.13;0.50;;;;;;;7.05;96.13;101444.66;5079905;28;20033;-68
2024/02/20 01:07:33;;;;;;;0.90;0.40;;;;;;;7.06;95.39;101443.75;5084998;28;20524;-68
2024/02/20 01:09:58;;;;;;;0.98;0.40;;;;;;;7.08;95.30;101454.84;5081341;28;20020;-69
2024/02/20 01:12:24;;;;;;;1.67;0.40;;;;;;;7.04;95.13;101448.19;5081348;28;20033;-69
2024/02/20 01:14:49;;;;;;;1.17;0.30;;;;;;;7.15;94.63;101446.53;5081321;28;20052;-69
2024/02/20 01:17:15;;;;;;;1.05;0.28;;;;;;;7.30;92.96;101444.72;5081108;28;20055;-69
2024/02/20 01:19:40;;;;;;;1.67;0.40;;;;;;;7.27;93.05;101435.41;5085723;28;20036;-69
2024/02/20 01:22:06;;;;;;;1.35;0.40;;;;;;;7.29;90.88;101435.28;5083177;28;20039;-69
2024/02/20 01:24:31;;;;;;;2.05;0.40;;;;;;;7.25;89.49;101433.81;5085175;28;20047;-69
2024/02/20 01:26:57;;;;;;;0.93;0.30;;;;;;;7.34;88.16;101435.81;5085453;28;20016;-69
2024/02/20 01:29:23;;;;;;;1.05;0.35;;;;;;;7.45;87.94;101441.16;5081869;28;20051;-69
2024/02/20 01:31:49;;;;;;;1.58;0.50;;;;;;;7.51;89.36;101440.75;5081678;28;20407;-69
2024/02/20 01:34:15;;;;;;;1.20;0.40;;;;;;;7.42;90.03;101443.09;5078799;28;20520;-69
2024/02/20 01:36:40;;;;;;;1.67;0.68;;;;;;;7.25;90.19;101433.81;5082861;28;20052;-69
2024/02/20 01:39:07;;;;;;;1.40;0.35;;;;;;;7.12;92.13;101432.94;5080063;28;20410;-69
2024/02/20 01:41:32;;;;;;;1.52;0.20;;;;;;;7.04;93.67;101437.81;5081981;28;20056;-69
2024/02/20 01:43:58;;;;;;;0.77;0.30;;;;;;;6.94;93.95;101433.22;5084028;28;20430;-69
2024/02/20 01:46:24;;;;;;;1.95;0.30;;;;;;;6.97;94.06;101427.00;5083245;28;20052;-69
2024/02/20 01:48:50;;;;;;;0.95;0.30;;;;;;;7.02;94.47;101429.31;5080969;28;23098;-69
2024/02/20 01:51:16;;;;;;;1.95;0.40;;;;;;;7.04;94.61;101427.47;5084213;28;20048;-69
2024/02/20 01:53:45;;;;;;;2.30;0.60;;;;;;;6.98;95.59;101428.69;5082583;28;20051;-69
2024/02/20 01:56:13;;;;;;;1.60;0.40;;;;;;;6.88;96.92;101425.84;5079622;28;20020;-69
2024/02/20 01:58:39;;;;;;;3.00;0.38;;;;;;;6.77;98.09;101435.22;5080333;28;20036;-69
2024/02/20 02:01:05;;;;;;;2.35;0.40;;;;;;;6.72;99.03;101432.06;5079593;28;20032;-69
2024/02/20 02:03:30;;;;;;;1.55;0.40;;;;;;;6.69;99.16;101430.50;5080402;28;20086;-69
2024/02/20 02:05:56;;;;;;;3.28;0.55;;;;;;;6.69;99.04;101422.72;5080582;28;20379;-69
2024/02/20 02:08:21;;;;;;;1.58;0.80;;;;;;;6.66;98.95;101425.50;5080855;28;20396;-69
2024/02/20 02:10:47;;;;;;;2.58;0.70;;;;;;;6.67;98.87;101424.59;5081313;28;20475;-69
2024/02/20 02:13:12;;;;;;;0.90;0.35;;;;;;;6.66;99.25;101425.50;5081228;28;20036;-69
2024/02/20 02:15:38;;;;;;;1.55;0.60;;;;;;;6.60;99.65;101428.50;5079568;28;20089;-69
2024/02/20 02:18:03;;;;;;;1.95;0.60;;;;;;;6.64;99.58;101429.97;5081477;28;20116;-69
2024/02/20 02:20:29;;;;;;;1.40;0.40;;;;;;;6.61;99.59;101425.00;5085373;28;20491;-69
2024/02/20 02:22:54;;;;;;;2.75;0.47;;;;;;;6.59;99.20;101422.50;5078884;28;20494;-69
2024/02/20 02:25:20;;;;;;;1.77;0.52;;;;;;;6.71;97.77;101433.81;5083906;28;20024;-69
2024/02/20 02:27:45;;;;;;;1.25;0.50;;;;;;;6.72;98.09;101430.31;5083766;28;20105;-69
2024/02/20 02:30:12;;;;;;;6.28;0.50;;;;;;;6.69;97.84;101427.91;5082751;28;20035;-69
2024/02/20 02:32:39;;;;;;;2.63;0.30;;;;;;;6.60;98.35;101431.94;5081677;28;20380;-69
2024/02/20 02:35:08;;;;;;;2.88;0.50;;;;;;;6.56;98.70;101438.22;5081277;28;20059;-69
2024/02/20 02:37:34;;;;;;;2.65;0.68;;;;;;;6.55;98.61;101433.16;5087963;28;20040;-69
2024/02/20 02:40:00;;;;;;;2.55;0.60;;;;;;;6.51;98.56;101439.44;5080937;28;20077;-69
2024/02/20 02:42:25;;;;;;;2.13;0.40;;;;;;;6.51;98.81;101431.66;5081672;28;20067;-69
2024/02/20 02:44:51;;;;;;;1.95;0.40;;;;;;;6.61;97.03;101432.78;5080306;28;20032;-69
2024/02/20 02:47:16;;;;;;;1.25;0.40;;;;;;;6.64;96.28;101424.78;5078787;28;20052;-69
2024/02/20 02:49:42;;;;;;;1.20;0.30;;;;;;;6.64;95.72;101429.97;5079643;28;20108;-69
2024/02/20 02:52:07;;;;;;;1.38;0.50;;;;;;;6.63;96.05;101429.13;5078113;28;20028;-69
2024/02/20 02:54:32;;;;;;;1.30;0.50;;;;;;;6.61;96.05;101433.59;5080358;28;20032;-68
2024/02/20 02:56:58;;;;;;;2.00;0.45;;;;;;;6.65;95.18;101436.81;5079881;28;20098;-69
2024/02/20 02:59:23;;;;;;;1.27;0.38;;;;;;;6.74;94.11;101436.22;5079733;28;20028;-69
2024/02/20 03:01:49;;;;;;;1.13;0.40;;;;;;;6.77;93.82;101443.81;5079512;28;20035;-69
2024/02/20 03:04:14;;;;;;;1.48;0.30;;;;;;;6.75;94.01;101447.41;5083760;28;20502;-69
2024/02/20 03:06:40;;;;;;;0.90;0.30;;;;;;;6.75;93.51;101447.41;5079008;28;20039;-69
2024/02/20 03:09:12;;;;;;;1.20;0.40;;;;;;;6.79;93.62;101449.72;5078888;28;20119;-69
2024/02/20 03:11:39;;;;;;;0.88;0.40;;;;;;;6.79;94.92;101454.06;5083733;28;20054;-69
2024/02/20 03:14:06;;;;;;;2.97;0.50;;;;;;;6.73;95.66;101444.94;5078551;28;20059;-69
2024/02/20 03:16:31;;;;;;;0.63;0.40;;;;;;;6.68;95.47;101457.31;5083150;28;20407;-69
2024/02/20 03:18:56;;;;;;;1.60;0.40;;;;;;;6.69;96.37;101458.16;5077058;28;20043;-69
2024/02/20 03:21:22;;;;;;;1.98;0.30;;;;;;;6.70;95.42;101459.81;5083142;28;20024;-69
2024/02/20 03:23:47;;;;;;;0.95;0.30;;;;;;;6.68;95.09;101457.31;5079497;28;20024;-69
2024/02/20 03:26:13;;;;;;;0.93;0.30;;;;;;;6.71;94.23;101446.78;5082995;28;20065;-69
2024/02/20 03:28:38;;;;;;;0.95;0.30;;;;;;;6.75;93.73;101437.91;5080507;28;20491;-69
2024/02/20 03:31:05;;;;;;;1.90;0.43;;;;;;;6.82;93.39;101444.34;5082765;28;20556;-69
2024/02/20 03:33:33;;;;;;;0.82;0.30;;;;;;;6.86;92.98;101445.00;5081499;28;20040;-70
2024/02/20 03:35:58;;;;;;;0.65;0.30;;;;;;;6.89;92.65;101449.97;5080928;28;20036;-69
2024/02/20 03:38:24;;;;;;;1.67;0.28;;;;;;;6.87;93.21;101452.66;5078313;28;20036;-69
2024/02/20 03:40:50;;;;;;;1.75;0.45;;;;;;;6.88;93.29;101454.34;5083790;28;20479;-70
2024/02/20 03:43:15;;;;;;;1.52;0.30;;;;;;;6.95;92.60;101453.03;5076505;28;20036;-69
2024/02/20 03:45:41;;;;;;;0.77;0.40;;;;;;;7.05;91.12;101453.28;5078743;28;20115;-69
2024/02/20 03:48:07;;;;;;;1.20;0.30;;;;;;;7.07;90.96;101445.41;5078127;28;20042;-69
2024/02/20 03:50:33;;;;;;;0.93;0.30;;;;;;;6.99;93.01;101457.09;5084400;28;20039;-69
2024/02/20 03:53:02;;;;;;;1.65;0.30;;;;;;;6.87;94.57;101452.66;5079636;28;20024;-69
2024/02/20 03:55:28;;;;;;;1.30;0.28;;;;;;;6.66;95.79;101456.59;5079402;28;20063;-69
2024/02/20 03:57:56;;;;;;;2.80;0.38;;;;;;;6.49;97.11;101462.00;5078238;28;20577;-69
2024/02/20 04:00:24;;;;;;;1.73;0.40;;;;;;;6.31;98.21;101456.19;5082035;28;20398;-69
2024/02/20 04:02:50;;;;;;;2.72;0.32;;;;;;;6.13;99.57;101455.56;5079235;28;20518;-69
2024/02/20 04:05:16;;;;;;;2.17;0.57;;;;;;;5.99;99.66;101464.13;5078189;28;20119;-70
2024/02/20 04:07:43;;;;;;;1.17;0.47;;;;;;;5.99;100.00;101460.72;5080157;28;20571;-69
2024/02/20 04:10:09;;;;;;;2.85;0.68;;;;;;;6.03;100.00;101459.59;5079215;28;20036;-70
2024/02/20 04:12:35;;;;;;;1.65;0.40;;;;;;;6.32;98.56;101450.91;5080279;28;20032;-69
2024/02/20 04:15:08;;;;;;;2.20;0.50;;;;;;;6.52;97.33;101461.81;5079130;28;20028;-69
2024/02/20 04:17:34;;;;;;;1.17;0.80;;;;;;;6.61;95.66;101466.44;5079222;28;20036;-69
2024/02/20 04:20:03;;;;;;;1.90;0.55;;;;;;;6.66;96.28;101459.19;5085559;28;20036;-69
2024/02/20 04:22:30;;;;;;;1.02;0.32;;;;;;;6.66;95.30;101466.94;5081005;28;20033;-69
2024/02/20 04:24:59;;;;;;;1.17;0.50;;;;;;;6.69;95.02;101468.53;5082120;28;20044;-70
2024/02/20 04:27:25;;;;;;;0.60;0.30;;;;;;;6.68;94.74;101470.28;5080943;28;20606;-70
2024/02/20 04:29:50;;;;;;;0.80;0.30;;;;;;;6.72;94.59;101463.97;5082912;28;20032;-69
2024/02/20 04:32:16;;;;;;;0.82;0.40;;;;;;;6.76;94.52;101464.63;5080885;28;20041;-69
2024/02/20 04:34:41;;;;;;;1.35;0.40;;;;;;;6.80;94.28;101472.13;5085765;28;20028;-69
2024/02/20 04:37:07;;;;;;;2.17;0.30;;;;;;;6.97;92.96;101469.31;5078238;28;20536;-69
2024/02/20 04:39:32;;;;;;;1.30;0.40;;;;;;;6.96;92.27;101467.63;5078952;28;20039;-70
2024/02/20 04:41:58;;;;;;;5.55;0.40;;;;;;;6.96;92.18;101462.47;5082723;28;20479;-70
2024/02/20 04:44:24;;;;;;;2.15;0.40;;;;;;;6.95;92.09;101465.97;5078042;28;20119;-69
2024/02/20 04:46:49;;;;;;;1.45;0.30;;;;;;;6.93;92.42;101462.66;5080477;28;20186;-70
2024/02/20 04:49:15;;;;;;;1.55;0.40;;;;;;;6.88;92.63;101467.28;5083882;28;20040;-70
2024/02/20 04:51:40;;;;;;;1.25;0.45;;;;;;;6.96;92.83;101459.88;5085061;28;20058;-69
2024/02/20 04:54:06;;;;;;;1.88;0.60;;;;;;;6.83;94.31;101466.75;5082003;28;20036;-70
2024/02/20 04:56:31;;;;;;;0.90;0.40;;;;;;;6.52;94.70;101465.22;5081306;28;20029;-69
2024/02/20 04:58:56;;;;;;;1.42;0.40;;;;;;;6.51;95.93;101465.31;5083185;28;20114;-69
2024/02/20 05:01:25;;;;;;;1.60;0.60;;;;;;;6.40;95.77;101467.72;5086450;28;20051;-69
2024/02/20 05:03:51;;;;;;;3.70;1.02;;;;;;;6.33;96.25;101464.69;5086135;28;20032;-69
2024/02/20 05:06:17;;;;;;;1.50;0.50;;;;;;;6.35;97.18;101467.19;5080767;28;20039;-69
2024/02/20 05:08:42;;;;;;;2.40;0.50;;;;;;;6.26;96.12;101464.22;5083092;28;20396;-69
2024/02/20 05:11:08;;;;;;;1.20;0.40;;;;;;;6.30;97.24;101470.88;5084224;28;20040;-69
2024/02/20 05:13:34;;;;;;;2.40;0.50;;;;;;;6.27;98.25;101473.66;5081277;28;20040;-69
2024/02/20 05:16:00;;;;;;;5.68;0.55;;;;;;;6.07;98.80;101466.25;5081672;28;20088;-69
2024/02/20 05:18:25;;;;;;;1.50;0.50;;;;;;;5.84;100.00;101477.09;5081179;28;20067;-69
2024/02/20 05:20:51;;;;;;;1.02;0.60;;;;;;;5.63;100.00;101474.84;5084466;28;20112;-69
2024/02/20 05:23:16;;;;;;;1.40;0.60;;;;;;;5.50;100.00;101476.47;5085630;28;20601;-70
2024/02/20 05:25:42;;;;;;;2.40;0.50;;;;;;;5.81;100.00;101485.03;5085517;28;20032;-69
2024/02/20 05:28:07;;;;;;;1.17;0.40;;;;;;;5.90;100.00;101484.53;5085108;28;20073;-69
2024/02/20 05:30:35;;;;;;;0.98;0.35;;;;;;;5.73;100.00;101484.63;5088652;28;20024;-69
2024/02/20 05:33:02;;;;;;;3.08;0.60;;;;;;;5.96;99.64;101485.00;5085448;28;20379;-69
2024/02/20 05:35:27;;;;;;;2.45;0.50;;;;;;;6.29;97.61;101474.38;5083817;28;20028;-69
2024/02/20 05:37:53;;;;;;;2.45;0.75;;;;;;;6.68;94.49;101472.03;5087901;28;20032;-69
2024/02/20 05:40:19;;;;;;;2.40;0.65;;;;;;;6.95;91.38;101473.75;5086092;28;20387;-69
2024/02/20 05:42:44;;;;;;;1.98;0.50;;;;;;;7.02;90.14;101481.13;5085448;28;20475;-69
2024/02/20 05:45:10;;;;;;;1.75;0.50;;;;;;;6.98;92.26;101478.75;5084887;28;20028;-69
2024/02/20 05:47:36;;;;;;;2.40;0.60;;;;;;;6.71;94.14;101485.63;5082554;28;20519;-69
2024/02/20 05:50:01;;;;;;;2.15;0.52;;;;;;;6.62;92.45;101483.59;5085955;28;20100;-69
2024/02/20 05:52:27;;;;;;;3.47;0.40;;;;;;;6.63;94.20;101485.25;5085189;28;20082;-69
2024/02/20 05:54:52;;;;;;;4.20;0.70;;;;;;;6.39;95.23;101491.97;5085286;28;20040;-69
2024/02/20 05:57:18;;;;;;;3.10;0.50;;;;;;;6.09;97.08;101489.47;5084161;28;20510;-69
2024/02/20 05:59:43;;;;;;;2.42;0.80;;;;;;;5.81;98.73;101498.78;5087548;28;20043;-69
2024/02/20 06:02:09;;;;;;;2.95;0.95;;;;;;;5.57;100.00;101500.22;5083460;28;20038;-69
2024/02/20 06:04:35;;;;;;;3.75;1.02;;;;;;;5.34;100.00;101506.66;5082386;28;20037;-69
2024/02/20 06:07:00;;;;;;;1.30;0.50;;;;;;;5.18;100.00;101505.88;5085702;28;20107;-69
2024/02/20 06:09:26;;;;;;;2.50;0.88;;;;;;;5.03;100.00;101501.53;5082847;28;20123;-69
2024/02/20 06:11:51;;;;;;;2.70;0.70;;;;;;;4.97;100.00;101506.13;5085975;28;20035;-69
2024/02/20 06:14:17;;;;;;;7.38;0.60;;;;;;;4.97;100.00;101507.88;5083147;28;20044;-69
2024/02/20 06:16:42;;;;;;;3.53;0.70;;;;;;;4.96;100.00;101504.44;5084322;28;20036;-69
2024/02/20 06:19:08;;;;;;;2.45;0.68;;;;;;;5.17;100.00;101507.63;5087563;28;20027;-69
2024/02/20 06:21:33;;;;;;;2.15;0.75;;;;;;;5.49;100.00;101512.72;5085102;28;20036;-69
2024/02/20 06:23:59;;;;;;;2.30;0.75;;;;;;;5.52;100.00;101515.16;5085585;28;20115;-69
2024/02/20 06:26:25;;;;;;;2.67;0.50;;;;;;;5.39;100.00;101520.16;5081669;28;20021;-69
2024/02/20 06:28:51;;;;;;;1.52;0.50;;;;;;;5.21;100.00;101527.19;5084157;28;20032;-69
2024/02/20 06:31:17;;;;;;;2.20;0.50;;;;;;;5.10;100.00;101523.53;5085356;28;20077;-69
2024/02/20 06:33:43;;;;;;;2.83;0.68;;;;;;;5.02;100.00;101529.13;5083756;28;20032;-69
2024/02/20 06:36:10;;;;;;;2.17;0.50;;;;;;;5.09;100.00;101533.03;5084092;28;20082;-69
2024/02/20 06:38:36;;;;;;;3.33;0.98;;;;;;;5.42;100.00;101540.66;5084184;28;20479;-69
2024/02/20 06:41:03;;;;;;;1.85;0.70;;;;;;;5.80;100.00;101535.91;5083183;28;20115;-69
2024/02/20 06:43:29;;;;;;;3.97;0.90;;;;;;;6.10;100.00;101535.94;5084052;28;20172;-69
2024/02/20 06:45:55;;;;;;;2.38;0.82;;;;;;;6.21;99.79;101537.88;5080302;28;20114;-69
2024/02/20 06:48:21;;;;;;;2.47;0.90;;;;;;;6.20;100.00;101547.41;5082749;28;20113;-69
2024/02/20 06:50:47;;;;;;;4.05;0.88;;;;;;;6.13;100.00;101540.09;5082902;28;20124;-69
2024/02/20 06:53:12;;;;;;;1.95;0.60;;;;;;;6.02;100.00;101550.25;5079415;28;20122;-69
2024/02/20 06:55:38;;;;;;;2.63;0.63;;;;;;;5.99;100.00;101546.06;5078358;28;20039;-69
2024/02/20 06:58:03;;;;;;;2.90;0.55;;;;;;;6.06;100.00;101542.22;5080675;28;20085;-69
2024/02/20 07:00:29;;;;;;;2.83;0.50;;;;;;;6.18;100.00;101549.22;5084164;28;20043;-69
2024/02/20 07:02:55;;;;;;;2.40;1.10;;;;;;;6.23;100.00;101548.97;5082977;28;20039;-69
2024/02/20 07:05:20;;;;;;;4.40;1.17;;;;;;;6.43;100.00;101552.97;5078456;28;20021;-69
2024/02/20 07:07:46;;;;;;;6.07;1.00;;;;;;;6.71;99.62;101549.53;5080632;28;20510;-69
2024/02/20 07:10:11;;;;;;;3.17;1.05;;;;;;;6.95;98.81;101554.06;5079354;28;20024;-69
2024/02/20 07:12:37;;;;;;;5.00;1.05;;;;;;;7.11;98.51;101551.34;5080576;28;20028;-69
2024/02/20 07:15:05;;;;;;;3.63;1.23;;;;;;;7.09;99.38;101544.59;5079930;28;20043;-69
2024/02/20 07:17:31;;;;;;;3.45;1.30;;;;;;;6.99;100.00;101542.59;5078318;28;20038;-69
2024/02/20 07:19:56;;;;;;;3.72;1.45;;;;;;;6.99;97.12;101545.19;5079858;28;20024;-68
2024/02/20 07:22:22;;;;;;;7.03;1.30;;;;;;;7.11;95.86;101546.16;5078787;28;20038;-69
2024/02/20 07:24:47;;;;;;;6.60;1.27;;;;;;;7.26;98.51;101541.78;5085828;28;20531;-69
2024/02/20 07:27:13;;;;;;;2.92;0.98;;;;;;;7.32;96.47;101551.75;5081491;28;20032;-69
2024/02/20 07:29:42;;;;;;;2.72;0.60;;;;;;;7.45;94.34;101557.84;5084848;28;20129;-69
2024/02/20 07:32:10;;;;;;;2.75;0.98;;;;;;;7.62;90.93;101560.16;5085457;28;20039;-69
2024/02/20 07:34:38;;;;;;;7.50;0.60;;;;;;;7.75;90.09;101551.59;5086208;28;20394;-69
2024/02/20 07:37:04;;;;;;;1.25;0.60;;;;;;;7.85;89.46;101557.84;5087047;28;20024;-69
2024/02/20 07:39:30;;;;;;;4.75;0.70;;;;;;;7.88;90.15;101550.69;5085709;28;20036;-69
2024/02/20 07:41:55;;;;;;;2.45;0.85;;;;;;;7.91;91.80;101550.50;5091183;28;20032;-69
2024/02/20 07:44:21;;;;;;;3.70;0.98;;;;;;;7.80;93.92;101558.13;5086581;28;20032;-69
2024/02/20 07:46:49;;;;;;;4.05;0.88;;;;;;;7.66;95.25;101553.00;5086939;28;20074;-69
2024/02/20 07:49:15;;;;;;;4.95;1.60;;;;;;;7.57;95.03;101562.22;5087127;28;20426;-69
2024/02/20 07:51:40;;;;;;;3.50;1.50;;;;;;;7.49;96.55;101553.28;5084120;28;20028;-69
2024/02/20 07:54:06;;;;;;;8.00;1.10;;;;;;;7.69;91.27;101555.41;5081234;28;20020;-69
2024/02/20 07:56:31;;;;;;;2.50;1.00;;;;;;;7.86;89.95;101549.13;5080839;28;20032;-69
2024/02/20 07:58:57;;;;;;;2.17;0.57;;;;;;;7.93;90.41;101555.59;5086870;28;20518;-69
2024/02/20 08:01:23;;;;;;;4.90;0.93;;;;;;;7.97;90.95;101552.69;5086398;28;20036;-69
2024/02/20 08:03:52;;;;;;;5.65;0.80;;;;;;;7.97;88.65;101557.03;5086334;28;20028;-69
2024/02/20 08:06:19;;;;;;;2.65;1.10;;;;;;;8.03;90.72;101561.84;5086555;28;20030;-69
2024/02/20 08:08:44;;;;;;;3.20;0.75;;;;;;;8.10;92.09;101559.63;5081645;28;20043;-69
2024/02/20 08:11:10;;;;;;;2.25;0.50;;;;;;;8.30;88.62;101559.97;5088048;28;20107;-69
2024/02/20 08:13:40;;;;;;;2.03;0.77;;;;;;;8.52;86.41;101555.94;5087701;28;20048;-69
2024/02/20 08:16:06;;;;;;;2.78;0.50;;;;;;;8.58;85.51;101545.97;5086802;28;20119;-67
2024/02/20 08:18:31;;;;;;;2.17;0.57;;;;;;;8.52;87.72;101553.34;5084653;28;20558;-68
2024/02/20 08:20:56;;;;;;;2.00;0.50;;;;;;;8.48;88.64;101554.50;5088056;28;20115;-68
2024/02/20 08:23:22;;;;;;;4.03;1.17;;;;;;;8.44;86.38;101558.25;5086247;28;20077;-68
2024/02/20 08:25:47;;;;;;;2.20;0.57;;;;;;;8.58;85.95;101553.75;5083903;28;20432;-68
2024/02/20 08:28:13;;;;;;;3.28;0.80;;;;;;;8.62;87.32;101554.38;5096308;28;20081;-68
2024/02/20 08:30:38;;;;;;;3.55;0.70;;;;;;;8.74;87.91;101550.09;5088849;28;20507;-66
2024/02/20 08:33:04;;;;;;;1.92;0.70;;;;;;;8.82;87.28;101553.00;5091214;28;20032;-69
2024/02/20 08:35:29;;;;;;;1.38;0.70;;;;;;;8.95;89.13;101559.84;5090335;28;20036;-69
2024/02/20 08:37:56;;;;;;;4.15;1.33;;;;;;;9.18;87.09;101560.81;5086739;28;20031;-65
2024/02/20 08:40:22;;;;;;;8.10;1.45;;;;;;;9.30;85.83;101559.13;5086952;28;20078;-64
2024/02/20 08:42:48;;;;;;;9.15;1.20;;;;;;;9.43;85.98;101562.50;5087085;28;20047;-64
2024/02/20 08:45:13;;;;;;;2.22;0.85;;;;;;;9.50;84.08;101563.69;5078269;28;20033;-65
2024/02/20 08:47:39;;;;;;;6.97;1.17;;;;;;;9.69;83.50;101555.38;5078896;28;20036;-65
2024/02/20 08:50:05;;;;;;;3.35;0.73;;;;;;;9.73;85.84;101558.59;5083721;28;20032;-65
2024/02/20 08:52:31;;;;;;;2.47;0.80;;;;;;;9.69;85.08;101564.97;5085077;28;20032;-64
2024/02/20 08:54:56;;;;;;;9.00;1.02;;;;;;;9.84;83.36;101562.06;5089506;28;20494;-65
2024/02/20 08:57:21;;;;;;;2.45;0.60;;;;;;;9.90;84.38;101553.00;5085199;28;20032;-66
2024/02/20 08:59:47;;;;;;;1.85;0.65;;;;;;;10.01;81.21;101547.78;5084173;28;20036;-65
2024/02/20 09:02:13;;;;;;;1.25;0.60;;;;;;;10.42;77.25;101554.28;5083247;28;20517;-65
2024/02/20 09:04:39;;;;;;;3.33;0.85;;;;;;;10.47;78.99;101552.97;5088936;28;20035;-65
2024/02/20 09:07:04;;;;;;;1.65;0.50;;;;;;;10.55;79.74;101549.78;5080605;28;20032;-65
2024/02/20 09:09:30;;;;;;;2.72;0.80;;;;;;;10.51;81.59;101548.38;5085296;28;20048;-66
2024/02/20 09:11:56;;;;;;;5.75;0.60;;;;;;;10.51;82.44;101558.78;5084573;28;20486;-65
2024/02/20 09:14:21;;;;;;;1.60;0.50;;;;;;;10.71;76.84;101552.06;5088289;28;20432;-65
2024/02/20 09:16:47;;;;;;;2.97;0.82;;;;;;;10.71;79.44;101565.91;5081550;28;20048;-65
2024/02/20 09:19:13;;;;;;;1.33;0.50;;;;;;;10.69;80.77;101561.78;5082734;28;20036;-65
2024/02/20 09:21:39;;;;;;;1.50;0.40;;;;;;;10.67;78.66;101564.50;5080483;28;20040;-65
2024/02/20 09:24:04;;;;;;;1.45;0.52;;;;;;;10.80;81.03;101557.38;5085795;28;20033;-65
2024/02/20 09:26:33;;;;;;;1.42;0.40;;;;;;;10.93;78.84;101555.47;5081371;28;20051;-65
2024/02/20 09:28:58;;;;;;;1.92;0.55;;;;;;;10.77;75.69;101559.41;5080761;28;20233;-65
2024/02/20 09:31:24;;;;;;;0.88;0.40;;;;;;;10.89;78.46;101556.66;5079774;28;20038;-65
2024/02/20 09:33:49;;;;;;;1.83;0.57;;;;;;;11.24;71.50;101561.69;5081408;28;20163;-65
2024/02/20 09:36:15;;;;;;;1.30;0.47;;;;;;;11.21;79.16;101559.34;5083478;28;20536;-65
2024/02/20 09:38:40;;;;;;;4.50;0.40;;;;;;;11.00;81.37;101566.25;5082291;28;20028;-65
2024/02/20 09:41:07;;;;;;;1.52;0.40;;;;;;;10.83;80.64;101558.94;5086912;28;20487;-65
2024/02/20 09:43:33;;;;;;;1.55;0.43;;;;;;;10.89;76.75;101564.47;5084665;28;20059;-65
2024/02/20 09:46:07;;;;;;;0.95;0.32;;;;;;;11.01;75.46;101567.06;5100129;28;20059;-66
2024/02/20 09:48:34;;;;;;;1.73;0.50;;;;;;;10.89;75.48;101564.47;5083765;28;20039;-66
2024/02/20 09:51:00;;;;;;;1.90;0.30;;;;;;;11.05;79.21;101568.50;5085574;28;20458;-66
2024/02/20 09:53:28;;;;;;;1.42;0.20;;;;;;;11.24;77.05;101559.09;5081817;28;20043;-66
2024/02/20 09:55:55;;;;;;;1.75;0.50;;;;;;;11.53;71.40;101564.56;5079860;28;20024;-66
2024/02/20 09:58:21;;;;;;;2.05;0.40;;;;;;;11.39;79.07;101564.84;5083374;28;20032;-66
2024/02/20 10:00:47;;;;;;;0.80;0.30;;;;;;;11.17;78.70;101567.53;5081566;28;20085;-66
2024/02/20 10:03:13;;;;;;;2.45;0.20;;;;;;;11.10;73.91;101569.78;5087447;28;20035;-66
2024/02/20 10:05:45;;;;;;;0.82;0.20;;;;;;;11.31;73.75;101564.66;5083081;28;20028;-66
2024/02/20 10:08:11;;;;;;;1.58;0.28;;;;;;;11.62;70.02;101568.22;5086453;28;20040;-66
2024/02/20 10:10:38;;;;;;;1.00;0.20;;;;;;;11.70;74.99;101562.38;5086705;28;20044;-65
2024/02/20 10:13:04;;;;;;;0.50;0.20;;;;;;;11.89;67.10;101562.53;5088265;28;20047;-65
2024/02/20 10:15:30;;;;;;;0.50;0.20;;;;;;;11.84;68.49;101562.91;5088515;28;20043;-65
2024/02/20 10:18:00;;;;;;;0.55;0.30;;;;;;;11.88;72.49;101553.88;5083680;28;20483;-66
2024/02/20 10:20:25;;;;;;;0.80;0.20;;;;;;;12.13;69.17;101557.09;5086486;28;20556;-68
2024/02/20 10:22:51;;;;;;;2.63;0.25;;;;;;;12.29;72.25;101555.66;5084235;28;20047;-68
2024/02/20 10:25:17;;;;;;;1.88;0.30;;;;;;;12.24;74.73;101557.84;5083432;28;20047;-68
2024/02/20 10:27:43;;;;;;;1.05;0.30;;;;;;;12.21;75.49;101554.66;5084377;28;20179;-68
2024/02/20 10:30:09;;;;;;;1.23;0.30;;;;;;;12.18;76.55;101552.31;5081926;28;20431;-68
2024/02/20 10:32:38;;;;;;;0.90;0.30;;;;;;;12.26;75.74;101547.28;5077204;28;20127;-69
2024/02/20 10:35:09;;;;;;;1.63;0.22;;;;;;;12.28;76.77;101543.56;5083476;28;20028;-69
2024/02/20 10:37:36;;;;;;;1.13;0.30;;;;;;;12.24;77.51;101539.56;5078686;28;20036;-68
2024/02/20 10:40:10;;;;;;;0.90;0.25;;;;;;;12.16;77.31;101541.97;5080309;28;20034;-69
2024/02/20 10:42:37;;;;;;;1.85;0.28;;;;;;;12.21;76.87;101539.81;5083384;28;20043;-69
2024/02/20 10:45:06;;;;;;;0.60;0.20;;;;;;;12.33;72.60;101537.09;5079611;28;20130;-69
2024/02/20 10:47:35;;;;;;;1.00;0.30;;;;;;;12.50;75.51;101529.50;5080807;28;20032;-70
2024/02/20 10:50:05;;;;;;;1.13;0.30;;;;;;;12.47;76.72;101524.53;5085163;28;20028;-70
2024/02/20 10:52:31;;;;;;;1.17;0.30;;;;;;;12.43;77.34;101528.34;5084723;28;20032;-70
2024/02/20 10:54:58;;;;;;;0.60;0.20;;;;;;;12.45;77.05;101520.38;5085221;28;20107;-70
2024/02/20 10:57:23;;;;;;;1.45;0.30;;;;;;;12.44;77.37;101518.72;5088960;28;20024;-70
2024/02/20 10:59:52;;;;;;;1.42;0.20;;;;;;;12.45;77.16;101515.97;5082546;28;20031;-69
2024/02/20 11:02:19;;;;;;;0.68;0.20;;;;;;;12.44;77.02;101514.34;5081216;28;20109;-70
2024/02/20 11:04:46;;;;;;;1.10;0.25;;;;;;;12.51;76.84;101512.03;5080467;28;20111;-70
2024/02/20 11:07:12;;;;;;;0.77;0.20;;;;;;;12.61;76.84;101511.09;5085530;28;20028;-70
2024/02/20 11:09:37;;;;;;;1.30;0.20;;;;;;;12.65;76.37;101513.47;5083845;28;20028;-70
2024/02/20 11:12:08;;;;;;;1.85;0.35;;;;;;;12.60;75.33;101506.84;5087309;28;20498;-70
2024/02/20 11:14:34;;;;;;;1.05;0.28;;;;;;;12.64;76.45;101515.25;5082884;28;20051;-69
2024/02/20 11:17:13;;;;;;;2.90;0.40;;;;;;;12.82;75.52;101508.41;5087329;28;20040;-70
2024/02/20 11:19:39;;;;;;;0.60;0.30;;;;;;;12.94;76.01;101512.56;5085234;28;20028;-70
2024/02/20 11:22:06;;;;;;;0.95;0.20;;;;;;;12.93;74.23;101499.63;5087254;28;20028;-70
2024/02/20 11:24:36;;;;;;;0.80;0.20;;;;;;;12.80;76.01;101494.63;5085432;28;20111;-70
2024/02/20 11:27:03;;;;;;;1.70;0.20;;;;;;;12.80;74.44;101489.41;5087409;28;20028;-69